sensor_id;sensor_type;location;lat;lon;timestamp;P1;durP1;ratioP1;P2;durP2;ratioP2
14933;SDS011;7560;51.364;12.384;2022-08-26T00:04:57;22.55;;;9.88;;
14933;SDS011;7560;51.364;12.384;2022-08-26T00:09:59;23.88;;;10.73;;
14933;SDS011;7560;51.364;12.384;2022-08-26T00:15:01;26.05;;;10.40;;
14933;SDS011;7560;51.364;12.384;2022-08-26T00:20:05;23.70;;;10.75;;
14933;SDS011;7560;51.364;12.384;2022-08-26T00:25:08;25.63;;;11.20;;
14933;SDS011;7560;51.364;12.384;2022-08-26T00:30:15;25.90;;;11.50;;
14933;SDS011;7560;51.364;12.384;2022-08-26T00:35:23;23.88;;;11.95;;
14933;SDS011;7560;51.364;12.384;2022-08-26T00:40:32;27.58;;;11.57;;
14933;SDS011;7560;51.364;12.384;2022-08-26T00:45:39;19.33;;;11.25;;
14933;SDS011;7560;51.364;12.384;2022-08-26T00:51:05;26.08;;;11.15;;
14933;SDS011;7560;51.364;12.384;2022-08-26T00:56:24;31.10;;;12.43;;
14933;SDS011;7560;51.364;12.384;2022-08-26T01:01:31;25.88;;;12.52;;
14933;SDS011;7560;51.364;12.384;2022-08-26T01:06:33;27.45;;;12.07;;
14933;SDS011;7560;51.364;12.384;2022-08-26T01:11:35;25.27;;;11.80;;
14933;SDS011;7560;51.364;12.384;2022-08-26T01:16:37;26.52;;;12.30;;
14933;SDS011;7560;51.364;12.384;2022-08-26T01:27:14;26.55;;;12.07;;
14933;SDS011;7560;51.364;12.384;2022-08-26T01:32:19;30.20;;;12.38;;
14933;SDS011;7560;51.364;12.384;2022-08-26T01:37:25;29.98;;;13.18;;
14933;SDS011;7560;51.364;12.384;2022-08-26T01:42:32;25.88;;;12.90;;
14933;SDS011;7560;51.364;12.384;2022-08-26T01:47:34;30.40;;;13.45;;
14933;SDS011;7560;51.364;12.384;2022-08-26T01:52:38;21.55;;;12.98;;
14933;SDS011;7560;51.364;12.384;2022-08-26T01:57:43;28.83;;;13.55;;
14933;SDS011;7560;51.364;12.384;2022-08-26T02:02:49;26.60;;;13.43;;
14933;SDS011;7560;51.364;12.384;2022-08-26T02:08:14;24.30;;;12.95;;
14933;SDS011;7560;51.364;12.384;2022-08-26T02:13:25;21.50;;;12.88;;
14933;SDS011;7560;51.364;12.384;2022-08-26T02:18:31;23.55;;;13.07;;
14933;SDS011;7560;51.364;12.384;2022-08-26T02:23:35;24.23;;;13.55;;
14933;SDS011;7560;51.364;12.384;2022-08-26T02:28:41;24.63;;;13.73;;
14933;SDS011;7560;51.364;12.384;2022-08-26T02:33:50;26.13;;;13.88;;
14933;SDS011;7560;51.364;12.384;2022-08-26T02:38:52;21.60;;;13.18;;
14933;SDS011;7560;51.364;12.384;2022-08-26T02:43:55;24.20;;;13.65;;
14933;SDS011;7560;51.364;12.384;2022-08-26T02:48:58;29.38;;;13.88;;
14933;SDS011;7560;51.364;12.384;2022-08-26T02:54:01;28.00;;;14.13;;
14933;SDS011;7560;51.364;12.384;2022-08-26T02:59:04;28.70;;;14.40;;
14933;SDS011;7560;51.364;12.384;2022-08-26T03:04:08;23.63;;;14.52;;
14933;SDS011;7560;51.364;12.384;2022-08-26T03:09:12;23.85;;;14.45;;
14933;SDS011;7560;51.364;12.384;2022-08-26T03:14:18;26.75;;;15.43;;
14933;SDS011;7560;51.364;12.384;2022-08-26T03:19:21;26.73;;;15.43;;
14933;SDS011;7560;51.364;12.384;2022-08-26T03:24:24;29.40;;;15.70;;
14933;SDS011;7560;51.364;12.384;2022-08-26T03:29:26;28.85;;;15.30;;
14933;SDS011;7560;51.364;12.384;2022-08-26T03:34:50;22.50;;;15.27;;
14933;SDS011;7560;51.364;12.384;2022-08-26T03:39:53;23.27;;;16.15;;
14933;SDS011;7560;51.364;12.384;2022-08-26T03:44:54;25.23;;;15.45;;
14933;SDS011;7560;51.364;12.384;2022-08-26T03:49:57;27.35;;;16.98;;
14933;SDS011;7560;51.364;12.384;2022-08-26T03:54:59;23.33;;;15.45;;
14933;SDS011;7560;51.364;12.384;2022-08-26T04:00:04;26.77;;;17.80;;
14933;SDS011;7560;51.364;12.384;2022-08-26T04:05:08;29.02;;;17.55;;
14933;SDS011;7560;51.364;12.384;2022-08-26T04:10:11;26.65;;;17.75;;
14933;SDS011;7560;51.364;12.384;2022-08-26T04:15:20;30.67;;;18.45;;
14933;SDS011;7560;51.364;12.384;2022-08-26T04:20:22;33.17;;;18.95;;
14933;SDS011;7560;51.364;12.384;2022-08-26T04:25:25;29.58;;;18.55;;
14933;SDS011;7560;51.364;12.384;2022-08-26T04:30:27;25.17;;;17.60;;
14933;SDS011;7560;51.364;12.384;2022-08-26T04:35:29;25.70;;;17.20;;
14933;SDS011;7560;51.364;12.384;2022-08-26T04:40:32;29.42;;;17.13;;
14933;SDS011;7560;51.364;12.384;2022-08-26T04:45:35;28.67;;;18.10;;
14933;SDS011;7560;51.364;12.384;2022-08-26T04:50:38;34.33;;;18.55;;
14933;SDS011;7560;51.364;12.384;2022-08-26T04:55:43;30.45;;;17.75;;
14933;SDS011;7560;51.364;12.384;2022-08-26T05:00:45;31.60;;;17.65;;
14933;SDS011;7560;51.364;12.384;2022-08-26T05:05:49;29.13;;;18.33;;
14933;SDS011;7560;51.364;12.384;2022-08-26T05:10:52;25.67;;;17.70;;
14933;SDS011;7560;51.364;12.384;2022-08-26T05:15:56;27.35;;;18.50;;
14933;SDS011;7560;51.364;12.384;2022-08-26T05:21:02;30.48;;;18.27;;
14933;SDS011;7560;51.364;12.384;2022-08-26T05:26:05;30.83;;;18.88;;
14933;SDS011;7560;51.364;12.384;2022-08-26T05:31:14;25.48;;;18.35;;
14933;SDS011;7560;51.364;12.384;2022-08-26T05:36:21;36.13;;;19.15;;
14933;SDS011;7560;51.364;12.384;2022-08-26T05:41:31;27.98;;;17.90;;
14933;SDS011;7560;51.364;12.384;2022-08-26T05:46:40;30.77;;;18.25;;
14933;SDS011;7560;51.364;12.384;2022-08-26T05:51:45;29.13;;;16.92;;
14933;SDS011;7560;51.364;12.384;2022-08-26T05:56:48;32.33;;;18.65;;
14933;SDS011;7560;51.364;12.384;2022-08-26T06:01:51;25.70;;;17.33;;
14933;SDS011;7560;51.364;12.384;2022-08-26T06:06:55;28.85;;;18.08;;
14933;SDS011;7560;51.364;12.384;2022-08-26T06:11:57;32.22;;;18.13;;
14933;SDS011;7560;51.364;12.384;2022-08-26T06:16:58;38.22;;;19.83;;
14933;SDS011;7560;51.364;12.384;2022-08-26T06:22:00;31.77;;;18.52;;
14933;SDS011;7560;51.364;12.384;2022-08-26T06:27:23;34.70;;;20.17;;
14933;SDS011;7560;51.364;12.384;2022-08-26T06:32:32;34.00;;;18.13;;
14933;SDS011;7560;51.364;12.384;2022-08-26T06:37:34;32.40;;;18.25;;
14933;SDS011;7560;51.364;12.384;2022-08-26T06:42:36;36.53;;;19.05;;
14933;SDS011;7560;51.364;12.384;2022-08-26T06:47:39;33.53;;;19.80;;
14933;SDS011;7560;51.364;12.384;2022-08-26T06:52:41;32.03;;;18.77;;
14933;SDS011;7560;51.364;12.384;2022-08-26T06:57:42;29.55;;;19.02;;
14933;SDS011;7560;51.364;12.384;2022-08-26T07:02:46;35.08;;;18.67;;
14933;SDS011;7560;51.364;12.384;2022-08-26T07:07:48;32.63;;;19.10;;
14933;SDS011;7560;51.364;12.384;2022-08-26T07:12:50;38.35;;;19.85;;
14933;SDS011;7560;51.364;12.384;2022-08-26T07:17:53;31.17;;;18.50;;
14933;SDS011;7560;51.364;12.384;2022-08-26T07:22:55;33.97;;;18.45;;
14933;SDS011;7560;51.364;12.384;2022-08-26T07:27:59;31.95;;;18.77;;
14933;SDS011;7560;51.364;12.384;2022-08-26T07:33:03;41.00;;;23.73;;
14933;SDS011;7560;51.364;12.384;2022-08-26T07:38:05;32.10;;;18.70;;
14933;SDS011;7560;51.364;12.384;2022-08-26T07:43:07;34.95;;;17.92;;
14933;SDS011;7560;51.364;12.384;2022-08-26T07:48:10;27.75;;;17.58;;
14933;SDS011;7560;51.364;12.384;2022-08-26T07:53:12;31.33;;;17.45;;
14933;SDS011;7560;51.364;12.384;2022-08-26T07:58:18;23.65;;;16.98;;
14933;SDS011;7560;51.364;12.384;2022-08-26T08:03:20;27.25;;;16.05;;
14933;SDS011;7560;51.364;12.384;2022-08-26T08:08:22;28.35;;;16.15;;
14933;SDS011;7560;51.364;12.384;2022-08-26T08:13:29;28.52;;;16.63;;
14933;SDS011;7560;51.364;12.384;2022-08-26T08:18:31;25.00;;;14.88;;
14933;SDS011;7560;51.364;12.384;2022-08-26T08:23:33;25.08;;;14.85;;
14933;SDS011;7560;51.364;12.384;2022-08-26T08:28:36;27.17;;;16.70;;
14933;SDS011;7560;51.364;12.384;2022-08-26T08:33:39;26.02;;;15.32;;
14933;SDS011;7560;51.364;12.384;2022-08-26T08:38:42;26.88;;;15.13;;
14933;SDS011;7560;51.364;12.384;2022-08-26T08:43:44;27.08;;;16.60;;
14933;SDS011;7560;51.364;12.384;2022-08-26T08:48:53;26.13;;;14.70;;
14933;SDS011;7560;51.364;12.384;2022-08-26T08:53:58;24.55;;;14.63;;
14933;SDS011;7560;51.364;12.384;2022-08-26T09:09:58;28.63;;;13.10;;
14933;SDS011;7560;51.364;12.384;2022-08-26T09:15:15;22.13;;;13.80;;
14933;SDS011;7560;51.364;12.384;2022-08-26T09:26:11;27.10;;;14.38;;
14933;SDS011;7560;51.364;12.384;2022-08-26T09:31:33;24.92;;;13.57;;
14933;SDS011;7560;51.364;12.384;2022-08-26T09:36:38;23.30;;;12.55;;
14933;SDS011;7560;51.364;12.384;2022-08-26T09:41:45;26.13;;;13.23;;
14933;SDS011;7560;51.364;12.384;2022-08-26T09:47:05;25.10;;;12.70;;
14933;SDS011;7560;51.364;12.384;2022-08-26T09:52:19;31.20;;;13.52;;
14933;SDS011;7560;51.364;12.384;2022-08-26T09:57:26;28.02;;;13.32;;
14933;SDS011;7560;51.364;12.384;2022-08-26T10:13:00;23.48;;;12.20;;
14933;SDS011;7560;51.364;12.384;2022-08-26T10:18:14;21.98;;;11.93;;
14933;SDS011;7560;51.364;12.384;2022-08-26T10:23:24;25.10;;;11.93;;
14933;SDS011;7560;51.364;12.384;2022-08-26T10:33:51;23.30;;;10.90;;
14933;SDS011;7560;51.364;12.384;2022-08-26T10:38:58;25.08;;;12.45;;
14933;SDS011;7560;51.364;12.384;2022-08-26T10:44:05;23.15;;;10.85;;
14933;SDS011;7560;51.364;12.384;2022-08-26T10:49:11;21.38;;;9.77;;
14933;SDS011;7560;51.364;12.384;2022-08-26T10:54:20;25.38;;;10.32;;
14933;SDS011;7560;51.364;12.384;2022-08-26T11:05:31;17.40;;;9.30;;
14933;SDS011;7560;51.364;12.384;2022-08-26T11:20:55;21.58;;;9.80;;
14933;SDS011;7560;51.364;12.384;2022-08-26T11:31:00;14.63;;;7.90;;
14933;SDS011;7560;51.364;12.384;2022-08-26T11:36:04;18.30;;;7.93;;
14933;SDS011;7560;51.364;12.384;2022-08-26T11:41:16;15.57;;;8.35;;
14933;SDS011;7560;51.364;12.384;2022-08-26T11:46:25;16.55;;;7.57;;
14933;SDS011;7560;51.364;12.384;2022-08-26T11:51:30;13.00;;;6.75;;
14933;SDS011;7560;51.364;12.384;2022-08-26T11:56:38;14.68;;;6.60;;
14933;SDS011;7560;51.364;12.384;2022-08-26T12:01:43;17.35;;;8.55;;
14933;SDS011;7560;51.364;12.384;2022-08-26T12:06:49;16.63;;;9.23;;
14933;SDS011;7560;51.364;12.384;2022-08-26T12:12:17;13.15;;;4.95;;
14933;SDS011;7560;51.364;12.384;2022-08-26T12:17:16;10.63;;;4.72;;
14933;SDS011;7560;51.364;12.384;2022-08-26T12:22:29;12.25;;;4.53;;
14933;SDS011;7560;51.364;12.384;2022-08-26T12:27:39;12.73;;;4.95;;
14933;SDS011;7560;51.364;12.384;2022-08-26T12:32:44;12.50;;;5.70;;
14933;SDS011;7560;51.364;12.384;2022-08-26T12:37:58;13.55;;;6.10;;
14933;SDS011;7560;51.364;12.384;2022-08-26T12:43:02;14.27;;;6.85;;
14933;SDS011;7560;51.364;12.384;2022-08-26T12:48:09;16.42;;;6.93;;
14933;SDS011;7560;51.364;12.384;2022-08-26T12:53:20;15.88;;;7.75;;
14933;SDS011;7560;51.364;12.384;2022-08-26T12:58:27;18.70;;;7.93;;
14933;SDS011;7560;51.364;12.384;2022-08-26T13:08:54;21.15;;;8.70;;
14933;SDS011;7560;51.364;12.384;2022-08-26T13:14:09;13.68;;;7.97;;
14933;SDS011;7560;51.364;12.384;2022-08-26T13:19:24;16.58;;;8.35;;
14933;SDS011;7560;51.364;12.384;2022-08-26T13:24:34;17.60;;;7.78;;
14933;SDS011;7560;51.364;12.384;2022-08-26T13:29:38;22.35;;;9.48;;
14933;SDS011;7560;51.364;12.384;2022-08-26T13:34:40;19.85;;;9.65;;
14933;SDS011;7560;51.364;12.384;2022-08-26T13:39:42;18.58;;;9.18;;
14933;SDS011;7560;51.364;12.384;2022-08-26T13:44:44;16.83;;;9.65;;
14933;SDS011;7560;51.364;12.384;2022-08-26T13:49:50;17.60;;;8.90;;
14933;SDS011;7560;51.364;12.384;2022-08-26T13:54:52;17.85;;;10.05;;
14933;SDS011;7560;51.364;12.384;2022-08-26T13:59:55;24.02;;;11.15;;
14933;SDS011;7560;51.364;12.384;2022-08-26T14:04:59;15.27;;;8.90;;
14933;SDS011;7560;51.364;12.384;2022-08-26T14:10:01;15.40;;;9.93;;
14933;SDS011;7560;51.364;12.384;2022-08-26T14:15:03;16.90;;;8.93;;
14933;SDS011;7560;51.364;12.384;2022-08-26T14:20:06;19.35;;;10.15;;
14933;SDS011;7560;51.364;12.384;2022-08-26T14:25:12;17.60;;;8.75;;
14933;SDS011;7560;51.364;12.384;2022-08-26T14:30:15;17.15;;;8.98;;
14933;SDS011;7560;51.364;12.384;2022-08-26T14:35:19;20.52;;;8.43;;
14933;SDS011;7560;51.364;12.384;2022-08-26T14:40:25;13.60;;;7.43;;
14933;SDS011;7560;51.364;12.384;2022-08-26T14:45:30;16.48;;;7.78;;
14933;SDS011;7560;51.364;12.384;2022-08-26T14:50:36;14.30;;;6.95;;
14933;SDS011;7560;51.364;12.384;2022-08-26T14:55:39;14.93;;;7.03;;
14933;SDS011;7560;51.364;12.384;2022-08-26T15:00:41;12.90;;;7.15;;
14933;SDS011;7560;51.364;12.384;2022-08-26T15:05:44;13.68;;;6.70;;
14933;SDS011;7560;51.364;12.384;2022-08-26T15:10:48;14.77;;;7.07;;
14933;SDS011;7560;51.364;12.384;2022-08-26T15:15:50;18.23;;;7.00;;
14933;SDS011;7560;51.364;12.384;2022-08-26T15:20:52;14.30;;;7.30;;
14933;SDS011;7560;51.364;12.384;2022-08-26T15:25:54;10.63;;;6.75;;
14933;SDS011;7560;51.364;12.384;2022-08-26T15:30:56;9.55;;;6.05;;
14933;SDS011;7560;51.364;12.384;2022-08-26T15:35:58;13.13;;;6.32;;
14933;SDS011;7560;51.364;12.384;2022-08-26T15:41:02;11.77;;;6.68;;
14933;SDS011;7560;51.364;12.384;2022-08-26T15:46:08;9.38;;;5.60;;
14933;SDS011;7560;51.364;12.384;2022-08-26T15:51:21;14.02;;;7.03;;
14933;SDS011;7560;51.364;12.384;2022-08-26T15:56:26;11.75;;;5.75;;
14933;SDS011;7560;51.364;12.384;2022-08-26T16:01:30;10.63;;;5.03;;
14933;SDS011;7560;51.364;12.384;2022-08-26T16:06:33;10.15;;;5.32;;
14933;SDS011;7560;51.364;12.384;2022-08-26T16:11:37;10.57;;;5.45;;
14933;SDS011;7560;51.364;12.384;2022-08-26T16:16:39;11.57;;;5.50;;
14933;SDS011;7560;51.364;12.384;2022-08-26T16:21:41;6.93;;;5.40;;
14933;SDS011;7560;51.364;12.384;2022-08-26T16:26:43;8.00;;;5.20;;
14933;SDS011;7560;51.364;12.384;2022-08-26T16:31:45;12.95;;;6.32;;
14933;SDS011;7560;51.364;12.384;2022-08-26T16:36:47;9.55;;;5.57;;
14933;SDS011;7560;51.364;12.384;2022-08-26T16:41:49;9.93;;;6.07;;
14933;SDS011;7560;51.364;12.384;2022-08-26T16:46:51;10.15;;;5.53;;
14933;SDS011;7560;51.364;12.384;2022-08-26T16:51:59;12.65;;;5.85;;
14933;SDS011;7560;51.364;12.384;2022-08-26T16:57:00;9.90;;;5.78;;
14933;SDS011;7560;51.364;12.384;2022-08-26T17:02:02;12.00;;;6.30;;
14933;SDS011;7560;51.364;12.384;2022-08-26T17:07:05;10.95;;;6.07;;
14933;SDS011;7560;51.364;12.384;2022-08-26T17:12:07;10.65;;;5.65;;
14933;SDS011;7560;51.364;12.384;2022-08-26T17:17:09;10.05;;;6.00;;
14933;SDS011;7560;51.364;12.384;2022-08-26T17:22:11;14.88;;;7.05;;
14933;SDS011;7560;51.364;12.384;2022-08-26T17:27:13;13.57;;;6.85;;
14933;SDS011;7560;51.364;12.384;2022-08-26T17:32:15;14.02;;;7.60;;
14933;SDS011;7560;51.364;12.384;2022-08-26T17:37:17;12.20;;;6.90;;
14933;SDS011;7560;51.364;12.384;2022-08-26T17:42:18;18.83;;;10.48;;
14933;SDS011;7560;51.364;12.384;2022-08-26T17:47:20;21.23;;;10.18;;
14933;SDS011;7560;51.364;12.384;2022-08-26T17:52:22;15.82;;;6.85;;
14933;SDS011;7560;51.364;12.384;2022-08-26T17:57:24;12.57;;;6.32;;
14933;SDS011;7560;51.364;12.384;2022-08-26T18:02:26;17.55;;;8.40;;
14933;SDS011;7560;51.364;12.384;2022-08-26T18:07:31;10.73;;;6.35;;
14933;SDS011;7560;51.364;12.384;2022-08-26T18:12:44;9.93;;;6.18;;
14933;SDS011;7560;51.364;12.384;2022-08-26T18:17:46;9.32;;;6.82;;
14933;SDS011;7560;51.364;12.384;2022-08-26T18:22:47;12.05;;;6.88;;
14933;SDS011;7560;51.364;12.384;2022-08-26T18:27:49;21.42;;;11.20;;
14933;SDS011;7560;51.364;12.384;2022-08-26T18:32:51;13.77;;;6.40;;
14933;SDS011;7560;51.364;12.384;2022-08-26T18:37:54;14.57;;;7.13;;
14933;SDS011;7560;51.364;12.384;2022-08-26T18:42:56;9.90;;;5.80;;
14933;SDS011;7560;51.364;12.384;2022-08-26T18:47:59;9.32;;;6.10;;
14933;SDS011;7560;51.364;12.384;2022-08-26T18:53:02;17.25;;;8.55;;
14933;SDS011;7560;51.364;12.384;2022-08-26T18:58:03;9.13;;;6.78;;
14933;SDS011;7560;51.364;12.384;2022-08-26T19:03:05;13.68;;;7.68;;
14933;SDS011;7560;51.364;12.384;2022-08-26T19:08:19;13.27;;;7.97;;
14933;SDS011;7560;51.364;12.384;2022-08-26T19:13:20;15.02;;;8.00;;
14933;SDS011;7560;51.364;12.384;2022-08-26T19:18:22;16.85;;;8.20;;
14933;SDS011;7560;51.364;12.384;2022-08-26T19:23:24;18.77;;;11.27;;
14933;SDS011;7560;51.364;12.384;2022-08-26T19:28:32;17.85;;;9.52;;
14933;SDS011;7560;51.364;12.384;2022-08-26T19:33:36;12.48;;;8.70;;
14933;SDS011;7560;51.364;12.384;2022-08-26T19:38:39;11.95;;;7.80;;
14933;SDS011;7560;51.364;12.384;2022-08-26T19:43:41;13.65;;;8.90;;
14933;SDS011;7560;51.364;12.384;2022-08-26T19:48:46;16.17;;;8.07;;
14933;SDS011;7560;51.364;12.384;2022-08-26T19:53:56;12.00;;;8.15;;
14933;SDS011;7560;51.364;12.384;2022-08-26T19:58:59;13.77;;;7.50;;
14933;SDS011;7560;51.364;12.384;2022-08-26T20:04:01;13.05;;;7.82;;
14933;SDS011;7560;51.364;12.384;2022-08-26T20:09:04;9.52;;;8.40;;
14933;SDS011;7560;51.364;12.384;2022-08-26T20:14:06;13.55;;;8.63;;
14933;SDS011;7560;51.364;12.384;2022-08-26T20:19:07;13.82;;;9.00;;
14933;SDS011;7560;51.364;12.384;2022-08-26T20:24:28;10.80;;;8.52;;
14933;SDS011;7560;51.364;12.384;2022-08-26T20:29:30;15.23;;;9.02;;
14933;SDS011;7560;51.364;12.384;2022-08-26T20:34:32;11.63;;;8.32;;
14933;SDS011;7560;51.364;12.384;2022-08-26T20:39:35;12.15;;;8.20;;
14933;SDS011;7560;51.364;12.384;2022-08-26T20:44:38;8.50;;;7.55;;
14933;SDS011;7560;51.364;12.384;2022-08-26T20:49:49;12.32;;;8.40;;
14933;SDS011;7560;51.364;12.384;2022-08-26T20:54:52;13.10;;;7.88;;
14933;SDS011;7560;51.364;12.384;2022-08-26T20:59:54;10.38;;;7.72;;
14933;SDS011;7560;51.364;12.384;2022-08-26T21:04:56;13.70;;;8.23;;
14933;SDS011;7560;51.364;12.384;2022-08-26T21:09:58;9.30;;;8.00;;
14933;SDS011;7560;51.364;12.384;2022-08-26T21:15:00;8.98;;;7.35;;
14933;SDS011;7560;51.364;12.384;2022-08-26T21:20:03;11.32;;;8.00;;
14933;SDS011;7560;51.364;12.384;2022-08-26T21:25:05;10.15;;;7.60;;
14933;SDS011;7560;51.364;12.384;2022-08-26T21:30:08;13.77;;;8.18;;
14933;SDS011;7560;51.364;12.384;2022-08-26T21:35:10;10.63;;;8.27;;
14933;SDS011;7560;51.364;12.384;2022-08-26T21:40:12;12.02;;;8.57;;
14933;SDS011;7560;51.364;12.384;2022-08-26T21:45:13;10.77;;;7.82;;
14933;SDS011;7560;51.364;12.384;2022-08-26T21:50:15;12.88;;;8.57;;
14933;SDS011;7560;51.364;12.384;2022-08-26T21:55:17;12.80;;;8.48;;
14933;SDS011;7560;51.364;12.384;2022-08-26T22:00:19;9.85;;;8.30;;
14933;SDS011;7560;51.364;12.384;2022-08-26T22:05:21;12.90;;;8.50;;
14933;SDS011;7560;51.364;12.384;2022-08-26T22:10:23;14.67;;;9.40;;
14933;SDS011;7560;51.364;12.384;2022-08-26T22:15:24;10.98;;;8.50;;
14933;SDS011;7560;51.364;12.384;2022-08-26T22:20:28;12.25;;;8.95;;
14933;SDS011;7560;51.364;12.384;2022-08-26T22:25:31;15.50;;;9.63;;
14933;SDS011;7560;51.364;12.384;2022-08-26T22:30:33;13.85;;;9.18;;
14933;SDS011;7560;51.364;12.384;2022-08-26T22:35:38;12.32;;;8.88;;
14933;SDS011;7560;51.364;12.384;2022-08-26T22:40:42;12.73;;;8.90;;
14933;SDS011;7560;51.364;12.384;2022-08-26T22:45:46;10.77;;;8.88;;
14933;SDS011;7560;51.364;12.384;2022-08-26T22:50:49;16.25;;;8.85;;
14933;SDS011;7560;51.364;12.384;2022-08-26T22:55:57;10.95;;;8.85;;
14933;SDS011;7560;51.364;12.384;2022-08-26T23:01:01;12.23;;;9.40;;
14933;SDS011;7560;51.364;12.384;2022-08-26T23:06:07;10.90;;;9.55;;
14933;SDS011;7560;51.364;12.384;2022-08-26T23:11:10;13.77;;;9.65;;
14933;SDS011;7560;51.364;12.384;2022-08-26T23:16:13;13.38;;;9.98;;
14933;SDS011;7560;51.364;12.384;2022-08-26T23:21:15;11.68;;;9.07;;
14933;SDS011;7560;51.364;12.384;2022-08-26T23:26:17;11.45;;;9.45;;
14933;SDS011;7560;51.364;12.384;2022-08-26T23:31:19;12.27;;;9.35;;
14933;SDS011;7560;51.364;12.384;2022-08-26T23:36:21;14.02;;;10.18;;
14933;SDS011;7560;51.364;12.384;2022-08-26T23:41:23;11.23;;;9.45;;
14933;SDS011;7560;51.364;12.384;2022-08-26T23:46:25;11.80;;;9.93;;
14933;SDS011;7560;51.364;12.384;2022-08-26T23:51:27;16.92;;;9.70;;
14933;SDS011;7560;51.364;12.384;2022-08-26T23:56:48;14.15;;;10.18;;
